Flight Track Log - Related Links

Times and Time Zones

All times are in EDT time to prevent confusion due to time zone crossing. See the N57ME flight status page for this flight to view local times or setup timezone preferences in your user account.

Time Position Orientation Groundspeed Altitude Reporting Facility
EDT Latitude Longitude Course Direction KTS MPH feet Rate Location/Type
Thu 05:17:50 PM 40.0539 -86.2533 19° North 194 223 21,000  Level Chicago Center
Thu 05:18:52 PM 40.1158 -86.2531 360° North 230 265 4,000 -7,104 Descending Chicago Center
Thu 05:19:55 PM 40.1825 -86.2572 357° North 234 269 6,200 2,592 Climbing Chicago Center
Thu 05:20:57 PM 40.2742 -86.2589 359° North 271 312 9,400 2,806 Climbing Chicago Center
Thu 05:21:59 PM 40.3397 -86.2058 32° Northeast 277 319 12,000 2,468 Climbing Chicago Center
Thu 05:23:00 PM 40.3744 -86.1170 19° North  Level FlightAware
Thu 05:23:01 PM 40.4053 -86.1544 31° Northeast 276 318 14,500  Level Chicago Center
Thu 05:24:03 PM 40.4706 -86.1025 31° Northeast 276 318 16,900 2,177 Climbing Chicago Center
Thu 05:25:05 PM 40.5392 -86.0558 27° Northeast 277 319 19,000 1,694 Climbing Chicago Center
Thu 05:26:07 PM 40.6169 -86.0650 355° North 280 322 20,400 960 Climbing Chicago Center
Thu 05:27:10 PM 40.7144 -86.0547 North 321 369 21,000 288 Climbing Chicago Center
Thu 05:28:12 PM 40.8106 -86.0217 15° North 353 406 21,000  Level Chicago Center
Thu 05:29:14 PM 40.9100 -85.9861 15° North 369 425 21,000  Level Chicago Center
Thu 05:30:16 PM 41.0294 -85.9417 16° North 372 428 21,000  Level Chicago Center
Thu 05:31:18 PM 41.1286 -85.9061 15° North 371 427 21,000  Level Chicago Center
Thu 05:32:20 PM 41.2281 -85.8717 15° North 370 426 21,000  Level Chicago Center
Thu 05:33:22 PM 41.3275 -85.8375 14° North 370 426 21,000  Level Chicago Center
Thu 05:34:25 PM 41.4281 -85.8528 354° North 366 421 21,000  Level Chicago Center
Thu 05:35:27 PM 41.5269 -85.8772 350° North 362 417 21,000  Level Chicago Center
Thu 05:36:29 PM 41.6478 -85.9033 351° North 362 417 21,000  Level Chicago Center
Thu 05:37:31 PM 41.7478 -85.9250 351° North 362 417 21,000 -145 Level Chicago Center
Thu 05:38:33 PM 41.8467 -85.9453 351° North 362 417 20,700 -726 Descending Chicago Center
Thu 05:39:35 PM 41.9447 -85.9689 350° North 360 414 19,500 -1,306 Descending Chicago Center
Thu 05:40:37 PM 42.0392 -85.9872 352° North 346 398 18,000 -1,452 Descending Chicago Center
Thu 05:41:39 PM 42.1308 -86.0061 351° North 334 384 16,500 -1,584 Descending Chicago Center
Thu 05:42:42 PM 42.2178 -86.0275 350° North 320 368 14,700 -1,776 Descending Chicago Center
Thu 05:43:44 PM 42.3064 -86.0464 351° North 315 362 12,800 -1,597 Descending Chicago Center
Thu 05:44:46 PM 42.4069 -86.0681 351° North 309 356 11,400 -1,355 Descending Chicago Center
Thu 05:45:48 PM 42.4850 -86.0847 351° North 288 331 10,000 -1,452 Descending Chicago Center
Thu 05:46:50 PM 42.5589 -86.1003 351° North 274 315 8,400 -1,403 Descending Chicago Center
Thu 05:47:52 PM 42.6331 -86.1183 350° North 273 314 7,100 -1,355 Descending Chicago Center
Thu 05:48:54 PM 42.7078 -86.1350 351° North 273 314 5,600 -1,344 Descending Chicago Center
Thu 05:49:57 PM 42.7806 -86.1411 356° North 266 306 4,300 -1,200 Descending Chicago Center
Thu 05:50:59 PM 42.8625 -86.1450 358° North 250 288 3,100 -871 Descending Chicago Center
Thu 05:52:01 PM 42.9333 -86.1414 North 250 288 2,500 -290 Descending Chicago Center
Thu 05:53:03 PM 43.0017 -86.1361 North 249 287 2,500 -48 Level Chicago Center
Thu 05:54:05 PM 43.0683 -86.1381 359° North 242 278 2,400 -145 Descending Chicago Center
Thu 05:55:07 PM 43.1236 -86.1400 359° North 215 247 2,200 -387 Descending Chicago Center
Thu 05:56:09 PM 43.1656 -86.1528 347° North 176 203 1,600 -484 Descending Chicago Center
Thu 05:57:11 PM 43.1822 -86.1947 299° West 145 167 1,200 -432 Descending Chicago Center
Thu 05:58:14 PM 43.1717 -86.2383 252° West 127 146 700 -476 Descending Chicago Center

Login

Don't have an account? Register now (free) for customized features, flight alerts, and more!